createdAt,value
2018-08-19T00:02:35.593Z,83.90
2018-08-19T00:05:19.339Z,83.40
2018-08-19T00:08:02.076Z,83.50
2018-08-19T00:10:44.710Z,82.50
2018-08-19T00:13:27.968Z,82.60
2018-08-19T00:16:11.595Z,82.80
2018-08-19T00:18:53.289Z,82.20
2018-08-19T00:21:34.978Z,81.50
2018-08-19T00:24:16.876Z,81.60
2018-08-19T00:26:58.465Z,82.50
2018-08-19T00:29:39.960Z,82.10
2018-08-19T00:32:22.053Z,82.40
2018-08-19T00:35:03.228Z,82.60
2018-08-19T00:37:45.028Z,82.80
2018-08-19T00:40:26.745Z,82.70
2018-08-19T00:43:08.405Z,83.00
2018-08-19T00:45:49.994Z,83.00
2018-08-19T00:48:31.789Z,82.50
2018-08-19T00:51:13.272Z,82.30
2018-08-19T00:53:55.205Z,82.30
2018-08-19T00:56:37.472Z,81.70
2018-08-19T00:59:18.856Z,81.40
2018-08-19T01:02:01.161Z,81.80
2018-08-19T01:04:42.161Z,82.30
2018-08-19T01:07:24.033Z,81.60
2018-08-19T01:10:05.820Z,81.50
2018-08-19T01:12:47.784Z,81.20
2018-08-19T01:15:29.514Z,81.30
2018-08-19T01:18:11.299Z,81.40
2018-08-19T01:20:56.536Z,81.30
2018-08-19T01:23:37.556Z,81.50
2018-08-19T01:26:19.247Z,81.40
2018-08-19T01:29:00.938Z,81.40
2018-08-19T01:31:43.499Z,81.10
2018-08-19T01:34:25.364Z,81.10
2018-08-19T01:37:06.826Z,81.20
2018-08-19T01:39:48.480Z,81.70
2018-08-19T01:42:29.941Z,82.20
2018-08-19T01:45:12.004Z,82.20
2018-08-19T01:47:53.290Z,82.60
2018-08-19T01:50:34.976Z,83.10
2018-08-19T01:53:16.563Z,83.00
2018-08-19T01:55:58.971Z,83.20
2018-08-19T01:58:47.111Z,83.50
2018-08-19T02:01:29.218Z,83.60
2018-08-19T02:04:10.805Z,84.20
2018-08-19T02:06:52.492Z,83.60
2018-08-19T02:09:34.087Z,83.80
2018-08-19T02:12:15.370Z,83.60
2018-08-19T02:14:57.043Z,83.50
2018-08-19T02:17:39.275Z,83.70
2018-08-19T02:20:22.282Z,84.50
2018-08-19T02:23:06.124Z,83.50
2018-08-19T02:25:48.770Z,83.90
2018-08-19T02:28:30.322Z,84.50
2018-08-19T02:31:12.217Z,85.20
2018-08-19T02:33:53.805Z,85.50
2018-08-19T02:36:35.542Z,86.00
2018-08-19T02:39:17.233Z,86.10
2018-08-19T02:41:58.549Z,86.20
2018-08-19T02:44:40.157Z,86.60
2018-08-19T02:47:21.848Z,86.70
2018-08-19T02:50:04.424Z,86.70
2018-08-19T02:52:46.254Z,86.80
2018-08-19T02:55:28.164Z,86.60
2018-08-19T02:58:14.452Z,86.40
2018-08-19T03:00:56.449Z,86.40
2018-08-19T03:03:37.822Z,85.40
2018-08-19T03:06:19.633Z,86.20
2018-08-19T03:09:01.419Z,86.00
2018-08-19T03:11:42.943Z,85.90
2018-08-19T03:14:24.436Z,86.10
2018-08-19T03:17:06.391Z,85.70
2018-08-19T03:19:47.980Z,85.90
2018-08-19T03:22:30.467Z,86.00
2018-08-19T03:25:11.916Z,86.00
2018-08-19T03:27:54.413Z,85.80
2018-08-19T03:30:35.911Z,85.00
2018-08-19T03:33:18.230Z,84.90
2018-08-19T03:35:59.963Z,85.10
2018-08-19T03:38:41.935Z,85.10
2018-08-19T03:41:23.186Z,85.00
2018-08-19T03:44:04.225Z,85.10
2018-08-19T03:46:46.183Z,85.10
2018-08-19T03:49:28.012Z,84.90
2018-08-19T03:52:10.565Z,85.30
2018-08-19T03:54:52.318Z,85.30
2018-08-19T03:57:34.212Z,85.00
2018-08-19T04:00:17.440Z,85.10
2018-08-19T04:02:59.642Z,84.90
2018-08-19T04:05:45.556Z,84.70
2018-08-19T04:08:26.607Z,84.80
2018-08-19T04:11:08.125Z,85.30
2018-08-19T04:13:49.924Z,85.50
2018-08-19T04:16:31.943Z,85.70
2018-08-19T04:19:13.237Z,86.00
2018-08-19T04:21:56.055Z,85.90
2018-08-19T04:24:37.879Z,85.80
2018-08-19T04:27:19.410Z,86.10
2018-08-19T04:30:01.265Z,86.80
2018-08-19T04:32:42.568Z,86.00
2018-08-19T04:35:24.033Z,86.30
2018-08-19T04:38:06.589Z,86.40
2018-08-19T04:40:48.208Z,86.40
2018-08-19T04:43:32.920Z,86.40
2018-08-19T04:46:15.976Z,86.50
2018-08-19T04:48:56.994Z,86.60
2018-08-19T04:51:38.788Z,86.30
2018-08-19T04:54:20.169Z,86.40
2018-08-19T04:57:02.612Z,86.70
2018-08-19T04:59:44.577Z,87.00
2018-08-19T05:02:26.512Z,87.00
2018-08-19T05:05:07.486Z,87.00
2018-08-19T05:07:49.470Z,86.50
2018-08-19T05:10:31.028Z,86.20
2018-08-19T05:13:13.376Z,86.30
2018-08-19T05:15:55.846Z,86.40
2018-08-19T05:18:37.026Z,86.50
2018-08-19T05:21:19.665Z,86.50
2018-08-19T05:24:01.743Z,86.60
2018-08-19T05:26:43.169Z,86.80
2018-08-19T05:29:24.852Z,86.80
2018-08-19T05:32:06.656Z,86.70
2018-08-19T05:34:48.504Z,86.70
2018-08-19T05:37:30.087Z,86.70
2018-08-19T05:40:11.684Z,86.70
2018-08-19T05:42:53.267Z,86.90
2018-08-19T05:45:35.060Z,86.70
2018-08-19T05:48:16.829Z,86.20
2018-08-19T05:50:58.852Z,86.00
2018-08-19T05:53:44.230Z,85.90
2018-08-19T05:56:26.946Z,85.90
2018-08-19T05:59:08.482Z,85.80
2018-08-19T06:01:50.325Z,85.90
2018-08-19T06:04:32.466Z,85.70
2018-08-19T06:07:13.882Z,85.20
2018-08-19T06:09:55.502Z,84.80
2018-08-19T06:12:37.096Z,84.70
2018-08-19T06:15:18.987Z,84.20
2018-08-19T06:18:01.098Z,84.00
2018-08-19T06:20:42.982Z,84.00
2018-08-19T06:23:25.173Z,83.70
2018-08-19T06:26:07.086Z,83.60
2018-08-19T06:28:48.058Z,83.40
2018-08-19T06:31:29.995Z,83.20
2018-08-19T06:34:11.536Z,82.20
2018-08-19T06:36:53.992Z,80.20
2018-08-19T06:39:36.093Z,80.30
2018-08-19T06:42:18.411Z,80.50
2018-08-19T06:45:00.145Z,79.90
2018-08-19T06:47:41.838Z,80.50
2018-08-19T06:50:26.751Z,80.90
2018-08-19T06:53:09.009Z,82.00
2018-08-19T06:55:50.630Z,83.10
2018-08-19T06:58:32.492Z,84.00
2018-08-19T07:01:14.082Z,85.00
2018-08-19T07:03:56.330Z,85.40
2018-08-19T07:06:37.462Z,86.20
2018-08-19T07:09:18.882Z,86.00
2018-08-19T07:12:00.646Z,86.30
2018-08-19T07:14:42.258Z,85.80
2018-08-19T07:17:24.619Z,86.80
2018-08-19T07:20:05.835Z,86.70
2018-08-19T07:22:47.313Z,86.70
2018-08-19T07:25:29.108Z,86.90
2018-08-19T07:28:10.580Z,87.60
2018-08-19T07:30:51.899Z,86.90
2018-08-19T07:33:33.829Z,86.10
2018-08-19T07:36:15.091Z,84.90
2018-08-19T07:38:56.832Z,85.60
2018-08-19T07:41:39.482Z,86.30
2018-08-19T07:44:20.876Z,87.20
2018-08-19T07:47:02.620Z,86.60
2018-08-19T07:49:44.208Z,86.10
2018-08-19T07:52:25.798Z,87.00
2018-08-19T07:55:07.885Z,86.40
2018-08-19T07:57:48.977Z,87.60
2018-08-19T08:00:36.090Z,88.10
2018-08-19T08:03:17.099Z,86.90
2018-08-19T08:05:59.984Z,87.70
2018-08-19T08:08:41.206Z,87.10
2018-08-19T08:11:23.372Z,88.20
2018-08-19T08:14:04.793Z,88.80
2018-08-19T08:16:51.049Z,88.60
2018-08-19T08:19:34.378Z,87.90
2018-08-19T08:22:17.235Z,89.60
2018-08-19T08:24:58.989Z,89.30
2018-08-19T08:27:40.786Z,88.60
2018-08-19T08:30:22.882Z,87.50
2018-08-19T08:33:04.268Z,88.50
2018-08-19T08:35:51.287Z,87.60
2018-08-19T08:38:32.771Z,86.80
2018-08-19T08:41:14.575Z,85.80
2018-08-19T08:43:56.509Z,83.80
2018-08-19T08:46:40.248Z,83.90
2018-08-19T08:49:22.093Z,84.20
2018-08-19T08:52:05.060Z,83.70
2018-08-19T08:54:51.414Z,81.80
2018-08-19T08:57:33.044Z,82.50
2018-08-19T09:00:14.821Z,84.80
2018-08-19T09:02:56.281Z,83.70
2018-08-19T09:05:38.075Z,83.90
2018-08-19T09:08:20.729Z,82.80
2018-08-19T09:11:03.336Z,82.00
2018-08-19T09:13:44.418Z,80.80
2018-08-19T09:16:25.867Z,80.60
2018-08-19T09:19:07.995Z,80.60
2018-08-19T09:21:49.488Z,80.20
2018-08-19T09:24:31.960Z,79.80
2018-08-19T09:27:13.957Z,79.70
2018-08-19T09:29:55.442Z,80.10
2018-08-19T09:32:36.954Z,80.50
2018-08-19T09:35:19.172Z,79.80
2018-08-19T09:38:05.530Z,80.10
2018-08-19T09:40:47.050Z,79.90
2018-08-19T09:43:28.810Z,79.60
2018-08-19T09:46:10.407Z,78.00
2018-08-19T09:48:52.515Z,78.00
2018-08-19T09:51:33.523Z,78.00
2018-08-19T09:54:15.002Z,78.80
2018-08-19T09:56:57.780Z,78.90
2018-08-19T09:59:39.229Z,79.30
2018-08-19T10:02:20.957Z,79.40
2018-08-19T10:05:02.441Z,78.70
2018-08-19T10:07:43.988Z,78.00
2018-08-19T10:10:25.776Z,78.60
2018-08-19T10:13:07.210Z,78.10
2018-08-19T10:15:49.825Z,77.70
2018-08-19T10:18:31.511Z,77.90
2018-08-19T10:21:18.732Z,78.30
2018-08-19T10:24:00.977Z,77.70
2018-08-19T10:26:43.347Z,76.60
2018-08-19T10:29:24.934Z,77.20
2018-08-19T10:32:06.112Z,76.70
2018-08-19T10:34:47.696Z,76.80
2018-08-19T10:37:29.285Z,76.10
2018-08-19T10:40:10.973Z,76.30
2018-08-19T10:42:52.258Z,76.30
2018-08-19T10:45:35.010Z,77.00
2018-08-19T10:48:16.768Z,76.50
2018-08-19T10:50:58.354Z,76.40
2018-08-19T10:53:39.944Z,76.10
2018-08-19T10:56:22.142Z,76.40
2018-08-19T10:59:03.065Z,75.00
2018-08-19T11:01:44.814Z,71.80
2018-08-19T11:04:26.855Z,72.40
2018-08-19T11:07:08.343Z,71.70
2018-08-19T11:09:49.783Z,71.40
2018-08-19T11:12:31.700Z,71.30
2018-08-19T11:15:13.612Z,72.10
2018-08-19T11:17:54.649Z,71.90
2018-08-19T11:20:39.419Z,71.90
2018-08-19T11:23:23.048Z,71.10
2018-08-19T11:26:05.489Z,72.20
2018-08-19T11:29:04.757Z,70.50
2018-08-19T11:31:46.348Z,71.50
2018-08-19T11:34:28.429Z,72.80
2018-08-19T11:37:09.736Z,73.80
2018-08-19T11:39:51.380Z,73.60
2018-08-19T11:42:33.694Z,72.10
2018-08-19T11:45:15.714Z,72.30
2018-08-19T11:48:01.204Z,73.00
2018-08-19T11:50:42.999Z,73.20
2018-08-19T11:53:24.929Z,74.10
2018-08-19T11:56:06.582Z,74.20
2018-08-19T11:58:49.093Z,74.10
2018-08-19T12:01:30.683Z,74.10
2018-08-19T12:04:12.680Z,74.50
2018-08-19T12:06:53.961Z,74.80
2018-08-19T12:09:36.127Z,74.30
2018-08-19T12:12:17.562Z,75.00
2018-08-19T12:14:59.683Z,76.10
2018-08-19T12:17:40.866Z,75.80
2018-08-19T12:20:27.174Z,74.90
2018-08-19T12:23:09.228Z,74.30
2018-08-19T12:25:51.675Z,74.30
2018-08-19T12:28:33.633Z,73.90
2018-08-19T12:31:16.757Z,74.10
2018-08-19T12:33:58.040Z,72.60
2018-08-19T12:36:39.728Z,74.00
2018-08-19T12:39:21.389Z,73.40
2018-08-19T12:42:03.419Z,73.60
2018-08-19T12:44:45.199Z,73.30
2018-08-19T12:47:27.208Z,73.60
2018-08-19T12:50:09.682Z,73.30
2018-08-19T12:52:51.346Z,70.80
2018-08-19T12:55:32.688Z,70.30
2018-08-19T12:58:18.072Z,69.90
2018-08-19T13:01:00.165Z,70.60
2018-08-19T13:03:41.993Z,68.70
2018-08-19T13:06:23.067Z,68.80
2018-08-19T13:09:04.941Z,69.10
2018-08-19T13:11:47.651Z,69.00
2018-08-19T13:14:29.033Z,69.00
2018-08-19T13:17:10.427Z,67.90
2018-08-19T13:19:59.277Z,66.50
2018-08-19T13:22:46.914Z,67.70
2018-08-19T13:25:28.697Z,69.80
2018-08-19T13:28:11.516Z,67.20
2018-08-19T13:30:52.898Z,68.00
2018-08-19T13:33:34.997Z,68.80
2018-08-19T13:36:15.908Z,66.20
2018-08-19T13:38:58.692Z,67.30
2018-08-19T13:41:40.753Z,67.30
2018-08-19T13:44:22.302Z,69.10
2018-08-19T13:47:03.766Z,66.40
2018-08-19T13:49:47.425Z,67.00
2018-08-19T13:52:29.219Z,66.70
2018-08-19T13:55:11.494Z,68.80
2018-08-19T13:57:52.368Z,68.30
2018-08-19T14:00:34.392Z,67.30
2018-08-19T14:03:15.683Z,67.70
2018-08-19T14:05:57.447Z,67.20
2018-08-19T14:08:39.337Z,68.30
2018-08-19T14:11:21.027Z,69.10
2018-08-19T14:14:02.000Z,68.90
2018-08-19T14:16:43.930Z,68.90
2018-08-19T14:19:25.181Z,69.00
2018-08-19T14:22:06.900Z,68.80
2018-08-19T14:24:48.496Z,68.80
2018-08-19T14:27:29.965Z,69.20
2018-08-19T14:30:12.773Z,67.30
2018-08-19T14:32:54.346Z,64.80
2018-08-19T14:35:36.910Z,65.10
2018-08-19T14:38:18.597Z,64.30
2018-08-19T14:41:00.292Z,64.10
2018-08-19T14:43:44.076Z,64.10
2018-08-19T14:46:26.635Z,63.90
2018-08-19T14:49:08.226Z,63.00
2018-08-19T14:51:49.208Z,62.00
2018-08-19T14:54:30.901Z,60.70
2018-08-19T14:57:12.763Z,62.60
2018-08-19T14:59:54.237Z,63.60
2018-08-19T15:02:36.168Z,64.60
2018-08-19T15:05:18.002Z,62.20
2018-08-19T15:07:59.420Z,63.30
2018-08-19T15:10:40.991Z,61.40
2018-08-19T15:13:22.863Z,60.00
2018-08-19T15:16:03.755Z,61.40
2018-08-19T15:18:45.435Z,61.80
2018-08-19T15:21:27.137Z,62.20
2018-08-19T15:24:08.835Z,61.70
2018-08-19T15:26:50.480Z,61.90
2018-08-19T15:29:32.660Z,63.30
2018-08-19T15:32:13.750Z,63.20
2018-08-19T15:34:55.136Z,62.70
2018-08-19T15:37:36.673Z,60.90
2018-08-19T15:40:18.479Z,60.20
2018-08-19T15:43:00.092Z,62.50
2018-08-19T15:45:42.362Z,62.00
2018-08-19T15:48:23.559Z,64.60
2018-08-19T15:51:09.515Z,64.20
2018-08-19T15:53:51.270Z,63.60
2018-08-19T15:56:32.979Z,64.50
2018-08-19T15:59:14.452Z,64.80
2018-08-19T16:01:56.492Z,61.50
2018-08-19T16:04:37.981Z,63.10
2018-08-19T16:07:19.260Z,62.30
2018-08-19T16:10:01.050Z,63.30
2018-08-19T16:12:48.646Z,62.40
2018-08-19T16:15:31.074Z,63.50
2018-08-19T16:18:12.529Z,64.90
2018-08-19T16:20:58.550Z,64.70
2018-08-19T16:23:40.054Z,65.00
2018-08-19T16:26:22.572Z,64.80
2018-08-19T16:29:03.638Z,64.90
2018-08-19T16:31:45.645Z,64.60
2018-08-19T16:34:27.399Z,65.00
2018-08-19T16:37:11.784Z,63.40
2018-08-19T16:39:53.478Z,65.90
2018-08-19T16:42:35.270Z,65.10
2018-08-19T16:45:17.064Z,65.90
2018-08-19T16:47:58.347Z,65.80
2018-08-19T16:50:39.916Z,67.20
2018-08-19T16:53:21.437Z,67.80
2018-08-19T16:56:03.250Z,67.80
2018-08-19T16:58:44.803Z,68.30
2018-08-19T17:01:26.863Z,68.10
2018-08-19T17:04:08.694Z,70.30
2018-08-19T17:06:50.396Z,70.40
2018-08-19T17:09:32.082Z,72.10
2018-08-19T17:12:13.808Z,72.00
2018-08-19T17:14:55.297Z,72.00
2018-08-19T17:17:37.557Z,73.30
2018-08-19T17:20:19.356Z,73.50
2018-08-19T17:23:01.225Z,73.70
2018-08-19T17:25:43.036Z,72.60
2018-08-19T17:28:26.959Z,73.20
2018-08-19T17:31:08.468Z,74.30
2018-08-19T17:33:49.707Z,74.50
2018-08-19T17:36:35.343Z,73.20
2018-08-19T17:39:23.759Z,74.80
2018-08-19T17:42:06.677Z,74.60
2018-08-19T17:44:48.087Z,74.30
2018-08-19T17:47:30.126Z,75.00
2018-08-19T17:50:14.333Z,73.40
2018-08-19T17:53:02.792Z,74.30
2018-08-19T17:55:45.950Z,73.80
2018-08-19T17:58:28.765Z,74.20
2018-08-19T18:01:10.414Z,74.10
2018-08-19T18:03:52.684Z,75.20
2018-08-19T18:06:35.231Z,75.40
2018-08-19T18:09:19.846Z,75.70
2018-08-19T18:12:04.774Z,76.00
2018-08-19T18:14:46.733Z,75.90
2018-08-19T18:17:28.484Z,75.10
2018-08-19T18:20:11.360Z,75.40
2018-08-19T18:22:54.324Z,75.70
2018-08-19T18:25:36.820Z,75.90
2018-08-19T18:28:26.198Z,76.10
2018-08-19T18:31:10.066Z,77.00
2018-08-19T18:34:06.343Z,77.00
2018-08-19T18:36:48.179Z,76.80
2018-08-19T18:39:30.232Z,76.70
2018-08-19T18:42:11.512Z,76.50
2018-08-19T18:44:53.987Z,76.60
2018-08-19T18:47:36.450Z,77.20
2018-08-19T18:50:18.015Z,77.20
2018-08-19T18:53:00.271Z,77.20
2018-08-19T18:55:43.388Z,77.30
2018-08-19T18:58:25.191Z,77.70
2018-08-19T19:01:06.935Z,77.50
2018-08-19T19:03:48.212Z,77.50
2018-08-19T19:06:29.952Z,77.50
2018-08-19T19:09:12.088Z,77.70
2018-08-19T19:11:53.684Z,77.60
2018-08-19T19:14:35.494Z,77.90
2018-08-19T19:17:17.220Z,77.90
2018-08-19T19:19:58.448Z,77.60
2018-08-19T19:22:40.159Z,77.50
2018-08-19T19:25:22.143Z,77.50
2018-08-19T19:28:03.423Z,77.10
2018-08-19T19:30:45.323Z,76.80
2018-08-19T19:33:26.880Z,76.80
2018-08-19T19:36:13.985Z,77.60
2018-08-19T19:38:59.354Z,77.00
2018-08-19T19:41:41.002Z,77.20
2018-08-19T19:44:22.498Z,77.20
2018-08-19T19:47:04.417Z,77.90
2018-08-19T19:49:54.759Z,77.30
2018-08-19T19:52:36.620Z,77.10
2018-08-19T19:55:19.652Z,77.10
2018-08-19T19:58:01.045Z,76.90
2018-08-19T20:00:48.266Z,77.00
2018-08-19T20:03:29.810Z,77.20
2018-08-19T20:06:10.821Z,76.80
2018-08-19T20:08:52.874Z,77.70
2018-08-19T20:11:35.165Z,76.90
2018-08-19T20:14:16.890Z,76.30
2018-08-19T20:16:59.605Z,75.90
2018-08-19T20:19:40.753Z,75.50
2018-08-19T20:22:23.230Z,75.70
2018-08-19T20:25:05.195Z,75.90
2018-08-19T20:27:46.540Z,75.90
2018-08-19T20:30:28.742Z,76.00
2018-08-19T20:33:11.055Z,76.00
2018-08-19T20:35:52.743Z,75.60
2018-08-19T20:38:34.849Z,75.30
2018-08-19T20:41:16.164Z,75.10
2018-08-19T20:44:00.232Z,74.90
2018-08-19T20:46:47.008Z,75.20
2018-08-19T20:49:29.117Z,74.40
2018-08-19T20:52:10.677Z,74.00
2018-08-19T20:54:51.943Z,73.30
2018-08-19T20:57:34.860Z,73.30
2018-08-19T21:00:16.797Z,72.60
2018-08-19T21:02:57.894Z,71.90
2018-08-19T21:05:40.146Z,71.80
2018-08-19T21:08:23.410Z,71.40
2018-08-19T21:11:06.429Z,72.60
2018-08-19T21:13:47.877Z,71.10
2018-08-19T21:16:29.591Z,71.20
2018-08-19T21:19:10.768Z,70.70
2018-08-19T21:21:53.392Z,70.60
2018-08-19T21:24:34.800Z,70.60
2018-08-19T21:27:16.638Z,71.10
2018-08-19T21:29:57.926Z,70.70
2018-08-19T21:32:39.711Z,68.70
2018-08-19T21:35:21.198Z,69.10
2018-08-19T21:38:02.747Z,68.60
2018-08-19T21:40:44.792Z,68.80
2018-08-19T21:43:26.414Z,68.50
2018-08-19T21:46:07.450Z,68.80
2018-08-19T21:48:49.135Z,69.10
2018-08-19T21:51:31.029Z,69.00
2018-08-19T21:54:14.409Z,69.20
2018-08-19T21:56:56.571Z,69.10
2018-08-19T21:59:38.162Z,69.40
2018-08-19T22:02:24.668Z,69.80
2018-08-19T22:05:06.659Z,69.10
2018-08-19T22:07:48.247Z,70.20
2018-08-19T22:10:29.998Z,69.00
2018-08-19T22:13:11.676Z,69.00
2018-08-19T22:15:54.188Z,68.80
2018-08-19T22:18:35.985Z,68.40
2018-08-19T22:21:19.464Z,68.20
2018-08-19T22:24:01.056Z,67.60
2018-08-19T22:26:42.535Z,67.70
2018-08-19T22:29:24.227Z,67.80
2018-08-19T22:32:06.328Z,67.60
2018-08-19T22:34:47.405Z,67.70
2018-08-19T22:37:29.302Z,67.30
2018-08-19T22:40:11.201Z,68.00
2018-08-19T22:42:53.090Z,67.30
2018-08-19T22:45:34.987Z,67.10
2018-08-19T22:48:17.292Z,67.20
2018-08-19T22:50:58.919Z,68.00
2018-08-19T22:53:40.878Z,66.90
2018-08-19T22:56:23.387Z,66.70
2018-08-19T22:59:05.283Z,68.10
2018-08-19T23:01:49.333Z,66.50
2018-08-19T23:04:30.852Z,66.60
2018-08-19T23:07:12.453Z,66.40
2018-08-19T23:09:54.714Z,66.70
2018-08-19T23:12:36.752Z,66.30
2018-08-19T23:15:18.142Z,67.00
2018-08-19T23:18:00.602Z,66.80
2018-08-19T23:20:42.479Z,67.30
2018-08-19T23:23:23.894Z,67.70
2018-08-19T23:26:06.852Z,67.00
2018-08-19T23:28:48.289Z,66.00
2018-08-19T23:31:29.885Z,67.50
2018-08-19T23:34:11.669Z,67.30
2018-08-19T23:36:53.133Z,67.20
2018-08-19T23:39:34.743Z,66.50
2018-08-19T23:42:16.587Z,67.00
2018-08-19T23:44:58.342Z,66.90
2018-08-19T23:47:39.826Z,66.40
2018-08-19T23:50:21.305Z,66.50
2018-08-19T23:53:03.160Z,66.50
2018-08-19T23:55:44.990Z,66.50
2018-08-19T23:58:26.213Z,66.20
